Time;durP1;ratioP1;P1;durP2;ratioP2;P2;SDS_P1;SDS_P2;PMS_P1;PMS_P2;Temp;Humidity;BMP_temperature;BMP_pressure;BME280_temperature;BME280_humidity;BME280_pressure;Samples;Min_cycle;Max_cycle;Signal;HPM_P1;HPM_P2
2021/05/03 00:00:25;;;;;;;9.95;4.30;;;486.80;1382.40;;;;;;5039030;28;20518;-77
2021/05/03 00:02:51;;;;;;;8.55;2.55;;;486.70;1408.00;;;;;;5039290;28;20364;-77
2021/05/03 00:05:25;;;;;;;13.00;3.30;;;486.50;1433.60;;;;;;5039282;28;20075;-77
2021/05/03 00:07:52;;;;;;;8.60;2.80;;;461.70;1459.20;;;;;;5039003;28;20029;-80
2021/05/03 00:10:18;;;;;;;7.95;2.65;;;486.40;1484.80;;;;;;5057119;28;20401;-79
2021/05/03 00:12:44;;;;;;;10.07;2.47;;;461.50;1484.80;;;;;;5038894;28;20021;-79
2021/05/03 00:15:12;;;;;;;7.68;2.55;;;486.40;1484.80;;;;;;5039218;28;20074;-80
2021/05/03 00:17:38;;;;;;;7.20;2.78;;;461.70;1484.80;;;;;;5039136;28;20072;-81
2021/05/03 00:20:05;;;;;;;10.70;3.13;;;461.70;1484.80;;;;;;5039014;28;20043;-79
2021/05/03 00:22:31;;;;;;;7.97;2.67;;;461.50;1484.80;;;;;;5039059;28;20107;-78
2021/05/03 00:24:57;;;;;;;10.63;2.83;;;461.60;1484.80;;;;;;5038928;28;20063;-80
2021/05/03 00:27:23;;;;;;;9.73;2.38;;;461.70;1484.80;;;;;;5038700;28;20029;-79
2021/05/03 00:29:49;;;;;;;6.22;2.58;;;461.50;1510.40;;;;;;5039130;28;20021;-80
2021/05/03 00:32:15;;;;;;;7.97;2.22;;;461.50;1536.00;;;;;;5056446;28;20013;-79
2021/05/03 00:34:41;;;;;;;9.45;2.35;;;461.50;1536.00;;;;;;5056192;28;20099;-79
2021/05/03 00:37:06;;;;;;;8.10;2.50;;;461.30;1561.60;;;;;;5038895;28;20033;-79
2021/05/03 00:39:32;;;;;;;6.45;2.00;;;461.40;1587.20;;;;;;5038677;28;20050;-79
2021/05/03 00:41:58;;;;;;;10.45;2.85;;;461.30;1587.20;;;;;;5056566;28;20029;-80
2021/05/03 00:44:26;;;;;;;8.10;2.03;;;461.30;1612.80;;;;;;5056524;28;20090;-80
2021/05/03 00:46:55;;;;;;;10.20;2.85;;;461.40;1638.40;;;;;;5038744;28;20021;-79
2021/05/03 00:49:21;;;;;;;7.60;1.75;;;461.50;1689.60;;;;;;5038191;28;20056;-81
2021/05/03 00:51:46;;;;;;;11.05;2.25;;;461.50;1740.80;;;;;;5035970;28;20503;-79
2021/05/03 00:54:12;;;;;;;6.43;2.10;;;461.40;1792.00;;;;;;5019983;28;20033;-79
2021/05/03 00:56:38;;;;;;;10.82;2.25;;;461.40;1868.80;;;;;;5019493;28;20028;-81
2021/05/03 00:59:04;;;;;;;6.47;1.83;;;461.50;1894.40;;;;;;5036062;28;20083;-80
2021/05/03 01:01:30;;;;;;;9.90;2.35;;;461.50;1971.20;;;;;;5036460;28;20025;-78
2021/05/03 01:03:56;;;;;;;8.73;2.75;;;461.40;2048.00;;;;;;5035886;28;20511;-78
2021/05/03 01:06:22;;;;;;;7.72;2.15;;;461.40;2124.80;;;;;;5019055;28;20433;-81
2021/05/03 01:08:48;;;;;;;9.10;2.30;;;461.40;2201.60;;;;;;5018060;28;20513;-81
2021/05/03 01:11:14;;;;;;;6.70;2.42;;;461.40;2252.80;;;;;;5018270;28;20342;-79
2021/05/03 01:13:40;;;;;;;13.35;2.80;;;461.10;2124.80;;;;;;5018205;28;20017;-81
2021/05/03 01:16:07;;;;;;;10.10;2.95;;;461.30;2150.40;;;;;;5017942;28;20387;-79
2021/05/03 01:18:36;;;;;;;8.95;2.63;;;436.10;1894.40;;;;;;5018210;28;20082;-79
2021/05/03 01:21:02;;;;;;;7.82;2.30;;;436.10;1894.40;;;;;;5018052;28;20036;-79
2021/05/03 01:23:28;;;;;;;12.60;3.40;;;461.40;1945.60;;;;;;5017875;28;20021;-80
2021/05/03 01:25:54;;;;;;;7.10;2.38;;;435.60;1971.20;;;;;;5018746;28;20032;-79
2021/05/03 01:28:20;;;;;;;6.82;2.60;;;435.50;2022.40;;;;;;5035667;28;20036;-82
2021/05/03 01:30:48;;;;;;;11.80;2.95;;;435.60;2124.80;;;;;;5035678;28;20449;-80
2021/05/03 01:33:16;;;;;;;11.48;2.70;;;435.70;2227.20;;;;;;5017965;28;20120;-79
2021/05/03 01:35:43;;;;;;;11.07;3.80;;;435.80;2278.40;;;;;;5017847;28;20026;-80
2021/05/03 01:38:10;;;;;;;11.10;2.08;;;435.80;2355.20;;;;;;5017740;28;20076;-80
2021/05/03 01:40:38;;;;;;;7.95;2.53;;;435.90;2355.20;;;;;;5017266;28;20028;-82
2021/05/03 01:43:15;;;;;;;5.90;1.92;;;435.90;2355.20;;;;;;5017687;28;20021;-82
2021/05/03 01:45:43;;;;;;;10.07;2.28;;;435.90;2355.20;;;;;;5017363;28;20061;-82
2021/05/03 01:48:11;;;;;;;7.05;1.88;;;435.80;2355.20;;;;;;5017671;28;20123;-82
2021/05/03 01:50:37;;;;;;;6.60;2.20;;;435.80;2355.20;;;;;;5017486;28;20022;-79
2021/05/03 01:53:05;;;;;;;8.68;2.72;;;435.80;2355.20;;;;;;5030119;28;20041;-83
2021/05/03 01:55:31;;;;;;;7.72;2.22;;;435.80;2355.20;;;;;;5037073;28;20059;-82
2021/05/03 01:57:57;;;;;;;9.63;2.00;;;435.80;2355.20;;;;;;5054883;28;20028;-81
2021/05/03 02:00:23;;;;;;;6.65;1.75;;;435.80;2355.20;;;;;;5037197;28;20124;-82
2021/05/03 02:02:49;;;;;;;8.68;1.88;;;435.80;2355.20;;;;;;5037220;28;20052;-80
2021/05/03 02:05:21;;;;;;;8.73;2.63;;;435.70;2355.20;;;;;;5037043;28;20021;-83
2021/05/03 02:08:05;;;;;;;10.90;1.85;;;435.60;2355.20;;;;;;5037020;28;20136;-81
2021/05/03 02:10:33;;;;;;;9.02;1.60;;;435.60;2355.20;;;;;;5053934;28;20029;-82
2021/05/03 02:13:00;;;;;;;6.85;1.63;;;435.60;2355.20;;;;;;5036740;28;20529;-82
2021/05/03 02:15:28;;;;;;;6.38;1.80;;;460.80;2380.80;;;;;;5036684;28;20020;-83
2021/05/03 02:17:54;;;;;;;6.85;2.20;;;435.50;2355.20;;;;;;5054381;28;20025;-82
2021/05/03 02:20:21;;;;;;;8.43;1.95;;;435.30;2355.20;;;;;;5036231;28;20479;-81
2021/05/03 02:22:47;;;;;;;7.47;1.80;;;435.40;2355.20;;;;;;5053469;28;20020;-83
2021/05/03 02:25:13;;;;;;;8.35;1.65;;;435.40;2355.20;;;;;;5052752;28;20021;-83
2021/05/03 02:27:39;;;;;;;6.88;2.13;;;435.50;2355.20;;;;;;5036577;28;20037;-81
2021/05/03 02:30:08;;;;;;;5.43;1.60;;;435.50;2355.20;;;;;;5053522;28;20025;-81
2021/05/03 02:32:35;;;;;;;6.75;2.28;;;435.40;2355.20;;;;;;5054645;28;20021;-82
2021/05/03 02:35:07;;;;;;;4.78;1.30;;;435.30;2355.20;;;;;;5053214;28;20032;-83
2021/05/03 02:37:33;;;;;;;6.95;1.40;;;435.40;2355.20;;;;;;5054319;28;20033;-82
2021/05/03 02:39:59;;;;;;;4.20;1.30;;;435.40;2355.20;;;;;;5052918;28;20032;-82
2021/05/03 02:42:25;;;;;;;11.43;1.60;;;435.40;2355.20;;;;;;5053059;28;20021;-81
2021/05/03 02:44:51;;;;;;;8.20;1.40;;;435.30;2355.20;;;;;;5053026;28;20111;-81
2021/05/03 02:47:17;;;;;;;4.20;1.58;;;435.40;2355.20;;;;;;5052696;28;20029;-82
2021/05/03 02:49:44;;;;;;;6.28;1.17;;;435.40;2355.20;;;;;;5036151;28;20028;-82
2021/05/03 02:52:09;;;;;;;4.90;1.50;;;435.30;2355.20;;;;;;5033473;28;20047;-83
2021/05/03 02:54:36;;;;;;;6.25;1.35;;;435.30;2355.20;;;;;;5052487;28;20095;-82
2021/05/03 02:57:01;;;;;;;6.75;1.40;;;435.30;2355.20;;;;;;5052871;28;20024;-81
2021/05/03 02:59:27;;;;;;;4.72;1.50;;;410.20;2355.20;;;;;;5035135;28;20365;-82
2021/05/03 03:01:53;;;;;;;4.82;1.50;;;410.50;2355.20;;;;;;5036015;28;20365;-82
2021/05/03 03:04:19;;;;;;;6.50;1.55;;;410.50;2355.20;;;;;;5036026;28;20036;-82
2021/05/03 03:06:45;;;;;;;5.65;1.30;;;435.30;2355.20;;;;;;5036803;28;20032;-83
2021/05/03 03:09:11;;;;;;;11.98;1.60;;;435.30;2355.20;;;;;;5035873;28;20381;-82
2021/05/03 03:11:38;;;;;;;7.85;1.50;;;435.20;2355.20;;;;;;5054129;28;20097;-81
2021/05/03 03:14:03;;;;;;;10.25;2.65;;;435.20;2355.20;;;;;;5054112;28;20013;-82
2021/05/03 03:16:31;;;;;;;5.43;2.05;;;410.50;2355.20;;;;;;5035971;28;20025;-81
2021/05/03 03:18:58;;;;;;;6.85;3.00;;;410.50;2355.20;;;;;;5035969;28;20028;-81
2021/05/03 03:21:25;;;;;;;7.22;3.55;;;410.50;2355.20;;;;;;5053154;28;20032;-82
2021/05/03 03:23:51;;;;;;;10.20;2.38;;;410.50;2355.20;;;;;;5035592;28;20471;-81
2021/05/03 03:26:17;;;;;;;6.85;2.00;;;410.40;2355.20;;;;;;5036119;28;20021;-81
2021/05/03 03:28:43;;;;;;;8.60;1.85;;;410.40;2355.20;;;;;;5035527;28;20056;-82
2021/05/03 03:31:09;;;;;;;5.65;2.08;;;410.20;2355.20;;;;;;5036012;28;20099;-81
2021/05/03 03:33:35;;;;;;;11.38;3.55;;;410.20;2355.20;;;;;;5053883;28;20044;-82
2021/05/03 03:36:02;;;;;;;9.48;3.08;;;410.20;2355.20;;;;;;5035580;28;20025;-81
2021/05/03 03:38:27;;;;;;;5.45;2.13;;;410.30;2355.20;;;;;;5036046;28;20059;-82
2021/05/03 03:40:54;;;;;;;10.73;1.83;;;410.20;2355.20;;;;;;5036305;28;20025;-81
2021/05/03 03:43:20;;;;;;;8.38;2.10;;;410.20;2355.20;;;;;;5035678;28;20371;-84
2021/05/03 03:45:46;;;;;;;5.65;1.83;;;410.20;2355.20;;;;;;5053404;28;20143;-83
2021/05/03 03:48:12;;;;;;;4.68;1.40;;;410.20;2355.20;;;;;;5054061;28;20056;-83
2021/05/03 03:50:38;;;;;;;6.93;1.90;;;410.20;2355.20;;;;;;5035602;28;20025;-82
2021/05/03 03:53:04;;;;;;;8.55;1.40;;;410.10;2355.20;;;;;;5035781;28;20044;-84
2021/05/03 03:55:30;;;;;;;8.05;1.50;;;410.10;2355.20;;;;;;5036000;28;20479;-83
2021/05/03 03:57:56;;;;;;;6.88;1.60;;;410.10;2355.20;;;;;;5035497;28;20029;-83
2021/05/03 04:00:22;;;;;;;8.52;2.30;;;410.00;2355.20;;;;;;5035558;28;20032;-84
2021/05/03 04:02:49;;;;;;;6.05;1.50;;;410.10;2355.20;;;;;;5035706;28;20452;-81
2021/05/03 04:13:43;;;;;;;4.55;1.27;;;410.10;2355.20;;;;;;5053843;28;20036;-82
2021/05/03 04:24:43;;;;;;;7.03;1.60;;;410.10;2355.20;;;;;;5054011;28;20035;-84
2021/05/03 04:27:09;;;;;;;4.35;1.58;;;410.00;2355.20;;;;;;5054030;28;20432;-83
2021/05/03 04:29:35;;;;;;;5.32;1.38;;;410.10;2355.20;;;;;;5035391;28;20104;-82
2021/05/03 04:32:01;;;;;;;3.42;1.52;;;410.10;2355.20;;;;;;5035115;28;20028;-82
2021/05/03 04:34:27;;;;;;;6.97;1.70;;;410.10;2355.20;;;;;;5037539;28;20039;-82
2021/05/03 04:36:53;;;;;;;6.00;1.65;;;410.10;2355.20;;;;;;5038786;28;20021;-82
2021/05/03 04:39:19;;;;;;;4.57;1.50;;;410.00;2355.20;;;;;;5038682;28;20021;-83
2021/05/03 04:41:45;;;;;;;5.60;1.80;;;410.00;2355.20;;;;;;5038835;28;20023;-82
2021/05/03 04:44:10;;;;;;;4.35;2.20;;;409.90;2355.20;;;;;;5057228;28;20513;-82
2021/05/03 04:46:37;;;;;;;6.25;1.83;;;409.90;2355.20;;;;;;5056223;28;20070;-83
2021/05/03 04:49:02;;;;;;;6.55;1.50;;;409.70;2355.20;;;;;;5038607;28;20461;-83
2021/05/03 04:51:28;;;;;;;5.88;1.67;;;409.90;2355.20;;;;;;5038551;28;20024;-83
2021/05/03 04:53:54;;;;;;;5.35;1.77;;;409.90;2355.20;;;;;;5037938;28;20068;-82
2021/05/03 04:56:20;;;;;;;5.53;1.83;;;409.90;2355.20;;;;;;5038502;28;20450;-83
2021/05/03 04:58:46;;;;;;;3.83;2.03;;;409.90;2355.20;;;;;;5039293;28;20357;-83
2021/05/03 05:01:12;;;;;;;6.65;2.28;;;409.80;2355.20;;;;;;5038123;28;20457;-84
2021/05/03 05:03:38;;;;;;;5.85;2.38;;;409.70;2355.20;;;;;;5038520;28;20108;-83
2021/05/03 05:06:04;;;;;;;5.78;2.30;;;409.70;2355.20;;;;;;5038371;28;20052;-82
2021/05/03 05:08:30;;;;;;;4.57;1.92;;;410.40;2355.20;;;;;;5037938;28;20029;-82
2021/05/03 05:10:56;;;;;;;7.20;2.17;;;410.00;2355.20;;;;;;5038328;28;20445;-84
2021/05/03 05:13:22;;;;;;;6.50;2.50;;;410.00;2355.20;;;;;;5055898;28;20024;-84
2021/05/03 05:15:47;;;;;;;4.97;2.17;;;409.90;2355.20;;;;;;5038076;28;20036;-84
2021/05/03 05:18:13;;;;;;;5.00;2.38;;;409.90;2355.20;;;;;;5038245;28;20031;-83
2021/05/03 05:20:40;;;;;;;4.97;2.30;;;409.90;2355.20;;;;;;5037843;28;20016;-82
2021/05/03 05:23:07;;;;;;;6.88;2.40;;;409.90;2355.20;;;;;;5037680;28;20052;-82
2021/05/03 05:25:33;;;;;;;6.70;2.55;;;409.80;2355.20;;;;;;5038064;28;20036;-82
2021/05/03 05:27:59;;;;;;;7.43;2.50;;;384.70;2329.60;;;;;;5037599;28;20064;-82
2021/05/03 05:30:25;;;;;;;5.78;2.47;;;409.90;2355.20;;;;;;5037900;28;20017;-84
2021/05/03 05:32:51;;;;;;;8.75;2.65;;;409.90;2355.20;;;;;;5037856;28;20048;-83
2021/05/03 05:35:17;;;;;;;4.70;2.50;;;410.00;2355.20;;;;;;5055116;28;20444;-82
2021/05/03 05:37:43;;;;;;;6.95;2.60;;;410.20;2355.20;;;;;;5055255;28;20028;-82
2021/05/03 05:40:09;;;;;;;7.65;2.50;;;409.60;2355.20;;;;;;5037797;28;20070;-85
2021/05/03 05:42:35;;;;;;;5.13;2.65;;;410.10;2355.20;;;;;;5037378;28;20356;-84
2021/05/03 05:45:02;;;;;;;5.00;2.63;;;410.10;2355.20;;;;;;5037386;28;20051;-85
2021/05/03 05:47:27;;;;;;;4.55;2.30;;;410.10;2355.20;;;;;;5036517;28;20044;-83
2021/05/03 05:49:53;;;;;;;9.02;2.28;;;410.20;2355.20;;;;;;5036509;28;20021;-85
2021/05/03 05:52:19;;;;;;;6.68;2.53;;;410.30;2355.20;;;;;;5054136;28;20465;-84
2021/05/03 05:54:45;;;;;;;6.00;2.50;;;410.30;2355.20;;;;;;5036841;28;20448;-83
2021/05/03 05:57:11;;;;;;;5.05;2.35;;;410.30;2355.20;;;;;;5037281;28;20449;-84
2021/05/03 05:59:37;;;;;;;4.20;2.50;;;410.30;2355.20;;;;;;5037521;28;20419;-83
2021/05/03 06:02:02;;;;;;;11.15;2.60;;;410.40;2355.20;;;;;;5037373;28;20031;-83
2021/05/03 06:04:28;;;;;;;7.75;2.60;;;410.40;2355.20;;;;;;5037101;28;20116;-85
2021/05/03 06:06:54;;;;;;;6.40;2.70;;;410.40;2355.20;;;;;;5037414;28;20048;-84
2021/05/03 06:09:20;;;;;;;5.50;2.30;;;410.40;2355.20;;;;;;5037246;28;20507;-84
2021/05/03 06:11:46;;;;;;;7.35;2.55;;;435.20;2355.20;;;;;;5036906;28;20071;-85
2021/05/03 06:14:12;;;;;;;7.05;2.40;;;435.20;2355.20;;;;;;5037048;28;20444;-82
2021/05/03 06:16:38;;;;;;;5.68;2.78;;;435.20;2355.20;;;;;;5036787;28;20024;-84
2021/05/03 06:19:04;;;;;;;4.80;2.85;;;435.30;2355.20;;;;;;5035813;28;20127;-83
2021/05/03 06:21:29;;;;;;;4.70;3.00;;;435.30;2355.20;;;;;;5037658;28;20028;-82
2021/05/03 06:23:55;;;;;;;5.13;2.60;;;435.40;2355.20;;;;;;5036217;28;20506;-81
2021/05/03 06:26:21;;;;;;;7.90;3.30;;;435.50;2355.20;;;;;;5054380;28;20021;-82
2021/05/03 06:28:48;;;;;;;10.18;5.15;;;435.60;2355.20;;;;;;5036666;28;20029;-83
2021/05/03 06:31:13;;;;;;;8.05;5.13;;;435.40;2355.20;;;;;;5036541;28;20020;-82
2021/05/03 06:33:39;;;;;;;11.48;7.03;;;435.40;2355.20;;;;;;5036546;28;20082;-82
2021/05/03 06:36:06;;;;;;;7.85;5.50;;;435.30;2355.20;;;;;;5036772;28;20021;-82
2021/05/03 06:38:31;;;;;;;7.63;5.65;;;435.50;2355.20;;;;;;5036454;28;20578;-82
2021/05/03 06:40:57;;;;;;;9.95;6.72;;;435.40;2329.60;;;;;;5036655;28;20067;-83
2021/05/03 06:43:23;;;;;;;8.82;6.20;;;435.50;2329.60;;;;;;5036382;28;20441;-84
2021/05/03 06:45:49;;;;;;;10.20;6.35;;;435.60;2304.00;;;;;;5054022;28;20104;-81
2021/05/03 06:48:15;;;;;;;9.40;7.25;;;435.50;2278.40;;;;;;5037252;28;20528;-81
2021/05/03 06:50:45;;;;;;;11.20;6.95;;;435.50;2278.40;;;;;;5035116;28;20514;-82
2021/05/03 06:53:12;;;;;;;13.20;7.78;;;435.60;2278.40;;;;;;5052668;28;20120;-81
2021/05/03 06:55:38;;;;;;;9.18;7.35;;;435.70;2278.40;;;;;;5036047;28;20453;-82
2021/05/03 06:58:03;;;;;;;9.73;7.75;;;435.80;2278.40;;;;;;5035299;28;20036;-81
2021/05/03 07:00:29;;;;;;;11.80;7.75;;;435.80;2252.80;;;;;;5035612;28;20021;-82
2021/05/03 07:02:55;;;;;;;10.88;7.70;;;435.70;2304.00;;;;;;5036253;28;20032;-83
2021/05/03 07:05:21;;;;;;;11.02;7.30;;;435.70;2278.40;;;;;;5036159;28;20021;-82
2021/05/03 07:07:47;;;;;;;13.35;8.40;;;435.80;2304.00;;;;;;5035852;28;20039;-81
2021/05/03 07:10:14;;;;;;;10.40;8.57;;;436.00;2278.40;;;;;;5035957;28;20365;-82
2021/05/03 07:12:47;;;;;;;11.95;9.38;;;460.90;2278.40;;;;;;5035893;28;20075;-81
2021/05/03 07:15:14;;;;;;;11.55;8.13;;;461.00;2252.80;;;;;;5036157;28;20025;-82
2021/05/03 07:17:40;;;;;;;10.32;8.63;;;460.90;2252.80;;;;;;5036064;28;20372;-84
2021/05/03 07:20:08;;;;;;;15.05;11.48;;;460.90;2252.80;;;;;;5035831;28;20025;-82
2021/05/03 07:22:34;;;;;;;17.00;13.00;;;460.80;2278.40;;;;;;5036719;28;20455;-84
2021/05/03 07:25:06;;;;;;;15.40;11.93;;;436.10;2252.80;;;;;;5053850;28;20146;-82
2021/05/03 07:27:32;;;;;;;17.75;13.57;;;436.10;2252.80;;;;;;5035684;28;20025;-83
2021/05/03 07:29:58;;;;;;;17.17;13.18;;;435.90;2252.80;;;;;;5036118;28;20032;-83
2021/05/03 07:32:24;;;;;;;16.88;14.48;;;436.10;2252.80;;;;;;5053574;28;20103;-81
2021/05/03 07:34:49;;;;;;;19.75;16.20;;;435.90;2252.80;;;;;;5053524;28;20035;-83
2021/05/03 07:37:15;;;;;;;17.98;15.65;;;435.70;2278.40;;;;;;5053852;28;20060;-84
2021/05/03 07:39:44;;;;;;;16.73;14.82;;;435.80;2278.40;;;;;;5053842;28;20017;-81
2021/05/03 07:42:11;;;;;;;16.52;13.48;;;436.00;2252.80;;;;;;5035879;28;20021;-81
2021/05/03 07:44:37;;;;;;;18.52;12.93;;;436.00;2227.20;;;;;;5036053;28;20123;-83
2021/05/03 07:47:03;;;;;;;15.32;12.65;;;460.80;2227.20;;;;;;5053462;28;20468;-81
2021/05/03 07:49:29;;;;;;;17.27;14.30;;;461.10;2201.60;;;;;;5053300;28;20033;-83
2021/05/03 07:51:56;;;;;;;16.20;12.45;;;461.20;2201.60;;;;;;5035426;28;20041;-83
2021/05/03 07:54:21;;;;;;;18.08;12.10;;;461.30;2124.80;;;;;;5035824;28;20075;-81
2021/05/03 07:56:47;;;;;;;12.75;11.45;;;461.50;2099.20;;;;;;5035347;28;20123;-78
2021/05/03 07:59:13;;;;;;;16.83;13.98;;;461.70;2099.20;;;;;;5035431;28;20338;-80
2021/05/03 08:01:39;;;;;;;15.10;13.45;;;461.50;2099.20;;;;;;5053196;28;20470;-75
2021/05/03 08:04:06;;;;;;;17.83;12.88;;;461.50;2073.60;;;;;;5035450;28;20025;-76
2021/05/03 08:06:32;;;;;;;17.67;13.18;;;486.40;2048.00;;;;;;5035422;28;20048;-74
2021/05/03 08:08:59;;;;;;;16.83;12.80;;;486.40;2048.00;;;;;;5038167;28;20471;-75
2021/05/03 08:11:25;;;;;;;16.42;14.18;;;486.50;1996.80;;;;;;5039167;28;20111;-74
2021/05/03 08:13:51;;;;;;;19.92;14.38;;;486.50;2022.40;;;;;;5038956;28;20108;-77
2021/05/03 08:16:19;;;;;;;18.27;13.48;;;486.40;2048.00;;;;;;5033687;28;20028;-75
2021/05/03 08:18:45;;;;;;;15.40;12.60;;;461.70;2048.00;;;;;;5033646;28;20484;-75
2021/05/03 08:21:12;;;;;;;18.08;13.48;;;486.70;2048.00;;;;;;5032854;28;20032;-74
2021/05/03 08:23:40;;;;;;;15.10;13.48;;;461.50;2048.00;;;;;;5033068;28;20063;-75
2021/05/03 08:26:06;;;;;;;23.40;13.18;;;461.60;2048.00;;;;;;5034445;28;20024;-74
2021/05/03 08:28:32;;;;;;;18.67;13.32;;;461.50;2048.00;;;;;;5034088;28;20064;-74
2021/05/03 08:30:58;;;;;;;18.02;13.07;;;461.60;2048.00;;;;;;5035200;28;20056;-76
2021/05/03 08:33:24;;;;;;;16.48;12.00;;;486.40;1996.80;;;;;;5037422;28;20021;-74
2021/05/03 08:35:51;;;;;;;16.40;12.85;;;486.70;1971.20;;;;;;5035961;28;20477;-74
2021/05/03 08:38:20;;;;;;;17.70;10.55;;;487.00;1945.60;;;;;;5028410;28;20037;-76
2021/05/03 08:40:46;;;;;;;12.63;10.43;;;487.00;1868.80;;;;;;5045477;28;20470;-75
2021/05/03 08:43:13;;;;;;;12.75;11.05;;;487.00;1894.40;;;;;;5030710;28;20025;-75
2021/05/03 08:45:40;;;;;;;12.27;10.10;;;486.80;1894.40;;;;;;5044247;28;20432;-75
2021/05/03 08:48:21;;;;;;;13.18;10.43;;;487.10;1868.80;;;;;;5050335;28;20029;-76
2021/05/03 08:50:52;;;;;;;11.97;10.23;;;512.00;1843.20;;;;;;5037209;28;20076;-76
2021/05/03 08:53:40;;;;;;;15.63;9.23;;;512.00;1817.60;;;;;;5054100;28;20041;-76
2021/05/03 08:56:06;;;;;;;10.63;8.63;;;512.00;1817.60;;;;;;5037256;28;20024;-76
2021/05/03 08:58:39;;;;;;;17.25;10.23;;;512.00;1792.00;;;;;;5050274;28;20120;-76
2021/05/03 09:01:05;;;;;;;11.77;9.57;;;512.10;1766.40;;;;;;5036286;28;20029;-77
2021/05/03 09:03:33;;;;;;;18.27;9.77;;;512.40;1766.40;;;;;;5033666;28;20207;-76
2021/05/03 09:06:09;;;;;;;11.90;9.35;;;512.40;1740.80;;;;;;5049919;28;20025;-76
2021/05/03 09:08:35;;;;;;;14.05;9.70;;;512.40;1740.80;;;;;;5034611;28;20032;-77
2021/05/03 09:11:01;;;;;;;13.68;9.90;;;512.40;1740.80;;;;;;5036212;28;20067;-77
2021/05/03 09:13:32;;;;;;;17.83;9.63;;;512.50;1740.80;;;;;;5051210;28;20431;-77
2021/05/03 09:16:14;;;;;;;11.52;9.60;;;512.50;1715.20;;;;;;5033458;28;20044;-77
2021/05/03 09:18:41;;;;;;;12.73;9.85;;;512.40;1715.20;;;;;;5053618;28;20463;-76
2021/05/03 09:21:36;;;;;;;13.80;10.25;;;512.50;1740.80;;;;;;5054212;28;20024;-77
2021/05/03 09:24:12;;;;;;;14.38;9.30;;;512.90;1766.40;;;;;;5024198;28;20348;-77
2021/05/03 09:27:05;;;;;;;10.38;8.80;;;537.60;1715.20;;;;;;5029842;28;20099;-76
2021/05/03 09:29:34;;;;;;;12.60;10.68;;;537.90;1689.60;;;;;;5033864;28;20032;-77
2021/05/03 09:32:12;;;;;;;12.45;9.75;;;538.00;1689.60;;;;;;5034708;28;20052;-76
2021/05/03 09:34:40;;;;;;;13.25;9.07;;;512.90;1689.60;;;;;;5049374;28;20029;-77
2021/05/03 09:37:28;;;;;;;14.05;10.52;;;537.90;1689.60;;;;;;5031050;28;20036;-74
2021/05/03 09:39:55;;;;;;;17.05;9.38;;;537.80;1689.60;;;;;;5031959;28;20021;-75
2021/05/03 09:42:23;;;;;;;13.55;9.43;;;512.40;1715.20;;;;;;5032879;28;20028;-76
2021/05/03 09:45:02;;;;;;;11.32;9.02;;;512.80;1689.60;;;;;;5049119;28;20108;-77
2021/05/03 09:47:29;;;;;;;11.98;9.07;;;537.90;1715.20;;;;;;5036232;28;20021;-77
2021/05/03 09:49:55;;;;;;;12.60;10.15;;;537.90;1664.00;;;;;;5049158;28;20028;-79
2021/05/03 09:52:21;;;;;;;13.50;9.98;;;538.00;1664.00;;;;;;5032293;28;20048;-76
2021/05/03 09:54:47;;;;;;;13.23;10.57;;;538.30;1689.60;;;;;;5031385;28;20100;-77
2021/05/03 09:57:13;;;;;;;13.45;9.93;;;538.50;1638.40;;;;;;5050884;28;20024;-76
2021/05/03 09:59:45;;;;;;;10.52;8.70;;;564.00;1664.00;;;;;;5048500;28;20017;-77
2021/05/03 10:02:32;;;;;;;12.27;8.23;;;563.50;1612.80;;;;;;5049588;28;20452;-77
2021/05/03 10:05:07;;;;;;;8.60;7.63;;;563.60;1664.00;;;;;;5032519;28;20040;-78
2021/05/03 10:07:36;;;;;;;11.05;7.18;;;563.80;1638.40;;;;;;5031338;28;20033;-76
2021/05/03 10:10:09;;;;;;;12.00;7.32;;;563.70;1638.40;;;;;;5050548;28;20070;-76
2021/05/03 10:12:34;;;;;;;;;;;563.60;1664.00;;;;;;5033181;28;20036;-77
2021/05/03 10:15:05;;;;;;;11.15;7.32;;;563.50;1689.60;;;;;;5032261;28;19900;-76
2021/05/03 10:17:32;;;;;;;10.25;8.27;;;563.40;1689.60;;;;;;5032430;28;20025;-76
2021/05/03 10:20:00;;;;;;;13.55;7.90;;;563.30;1664.00;;;;;;5048699;28;20021;-76
2021/05/03 10:22:27;;;;;;;9.68;7.18;;;563.40;1664.00;;;;;;5049173;28;20100;-77
2021/05/03 10:24:56;;;;;;;8.35;6.05;;;564.10;1638.40;;;;;;5031080;28;20023;-77
2021/05/03 10:27:24;;;;;;;10.05;7.63;;;589.10;1561.60;;;;;;5031399;28;20053;-76
2021/05/03 10:30:12;;;;;;;7.78;5.65;;;589.30;1587.20;;;;;;5048661;28;20013;-76
2021/05/03 10:32:38;;;;;;;8.32;6.00;;;589.00;1561.60;;;;;;5018005;28;20460;-77
2021/05/03 10:35:07;;;;;;;10.75;7.07;;;588.80;1561.60;;;;;;5052263;28;20017;-76
2021/05/03 10:37:42;;;;;;;11.60;7.30;;;563.80;1561.60;;;;;;5035148;28;20033;-78
2021/05/03 10:40:34;;;;;;;14.30;8.57;;;564.00;1536.00;;;;;;5036437;28;20032;-78
2021/05/03 10:43:06;;;;;;;9.82;6.28;;;589.30;1536.00;;;;;;5025709;28;20032;-76
2021/05/03 10:48:55;;;;;;;16.35;5.97;;;614.70;1459.20;;;;;;5053931;28;20037;-78
2021/05/03 10:51:47;;;;;;;9.75;6.10;;;615.10;1459.20;;;;;;5036023;28;20025;-78
2021/05/03 10:54:18;;;;;;;11.13;5.72;;;615.30;1408.00;;;;;;5015528;28;20083;-77
2021/05/03 10:56:45;;;;;;;7.97;5.13;;;615.20;1382.40;;;;;;5016133;28;20021;-77
2021/05/03 10:59:12;;;;;;;10.38;5.20;;;614.80;1408.00;;;;;;5015267;28;20052;-77
2021/05/03 11:01:53;;;;;;;6.47;5.13;;;614.60;1433.60;;;;;;5016227;28;20022;-77
2021/05/03 11:04:20;;;;;;;6.90;5.15;;;614.50;1408.00;;;;;;5034011;28;20033;-77
2021/05/03 11:06:48;;;;;;;11.52;5.68;;;589.70;1433.60;;;;;;5016226;28;20021;-77
2021/05/03 11:09:36;;;;;;;8.25;5.25;;;614.90;1433.60;;;;;;5034171;28;20033;-77
2021/05/03 11:12:21;;;;;;;8.98;5.75;;;614.60;1382.40;;;;;;5013334;28;20029;-80
2021/05/03 11:15:15;;;;;;;12.07;5.65;;;614.40;1408.00;;;;;;5032913;28;20465;-76
2021/05/03 11:18:19;;;;;;;10.23;5.45;;;589.60;1433.60;;;;;;5030416;28;20025;-77
2021/05/03 11:21:01;;;;;;;11.13;6.80;;;589.30;1459.20;;;;;;4987143;28;20033;-78
2021/05/03 11:23:29;;;;;;;9.52;5.78;;;589.20;1484.80;;;;;;5013770;28;20032;-77
2021/05/03 11:25:55;;;;;;;17.00;5.88;;;588.90;1459.20;;;;;;5013139;28;20029;-78
2021/05/03 11:28:26;;;;;;;14.50;6.03;;;588.80;1510.40;;;;;;5012054;28;20116;-75
2021/05/03 11:31:00;;;;;;;9.55;5.63;;;564.10;1536.00;;;;;;5010585;28;20360;-79
2021/05/03 11:33:55;;;;;;;9.55;4.97;;;589.10;1536.00;;;;;;5028909;28;20049;-78
2021/05/03 11:36:25;;;;;;;6.10;4.25;;;563.90;1536.00;;;;;;5012922;28;20021;-78
2021/05/03 11:46:40;;;;;;;6.88;4.53;;;588.90;1484.80;;;;;;5033578;28;20362;-79
2021/05/03 11:49:15;;;;;;;9.32;5.00;;;564.00;1536.00;;;;;;5016423;28;20044;-80
2021/05/03 11:51:53;;;;;;;8.40;5.68;;;564.00;1536.00;;;;;;5002799;28;20105;-80
2021/05/03 11:54:42;;;;;;;8.32;5.07;;;588.90;1561.60;;;;;;5038613;28;20044;-80
2021/05/03 11:57:10;;;;;;;7.70;4.32;;;564.00;1536.00;;;;;;5032071;28;20021;-80
2021/05/03 11:59:37;;;;;;;8.88;6.85;;;563.90;1536.00;;;;;;5034655;28;20031;-79
2021/05/03 12:02:11;;;;;;;8.60;4.45;;;588.90;1510.40;;;;;;5034154;28;20151;-79
2021/05/03 12:04:48;;;;;;;9.25;4.07;;;589.00;1510.40;;;;;;5031130;28;20013;-78
2021/05/03 12:07:23;;;;;;;9.02;4.75;;;589.10;1484.80;;;;;;5051220;28;20021;-78
2021/05/03 12:10:13;;;;;;;7.68;4.05;;;589.30;1484.80;;;;;;5052264;28;20020;-79
2021/05/03 12:12:42;;;;;;;5.85;4.05;;;589.50;1459.20;;;;;;5036351;28;20013;-78
2021/05/03 12:15:15;;;;;;;7.00;3.78;;;614.40;1433.60;;;;;;5055433;28;20082;-77
2021/05/03 12:17:42;;;;;;;6.72;3.88;;;614.40;1433.60;;;;;;5036038;28;20017;-78
2021/05/03 12:20:14;;;;;;;7.10;4.93;;;614.50;1433.60;;;;;;5035981;28;20074;-80
2021/05/03 12:22:56;;;;;;;10.93;6.07;;;614.80;1433.60;;;;;;5050647;28;20484;-80
2021/05/03 12:25:23;;;;;;;8.75;4.88;;;615.00;1382.40;;;;;;5035123;28;20024;-78
2021/05/03 12:27:49;;;;;;;8.55;3.90;;;614.80;1382.40;;;;;;5052655;28;20025;-78
2021/05/03 12:30:16;;;;;;;7.47;4.90;;;589.70;1382.40;;;;;;5033844;28;20024;-81
2021/05/03 12:32:43;;;;;;;6.80;5.03;;;589.30;1459.20;;;;;;5050994;28;20075;-82
2021/05/03 12:35:21;;;;;;;8.75;3.67;;;589.10;1459.20;;;;;;5033361;28;20025;-82
2021/05/03 12:37:47;;;;;;;9.60;3.72;;;588.90;1459.20;;;;;;5033725;28;20025;-81
2021/05/03 12:40:15;;;;;;;11.23;4.30;;;588.80;1484.80;;;;;;5033810;28;20024;-81
2021/05/03 12:42:49;;;;;;;8.02;4.25;;;564.00;1484.80;;;;;;5049944;28;20360;-82
2021/05/03 12:51:35;;;;;;;12.48;9.38;;;563.50;1536.00;;;;;;5046013;28;20040;-83
2021/05/03 12:54:28;;;;;;;7.38;4.57;;;563.30;1536.00;;;;;;5037551;28;20041;-81